Allentown, New York
Current Conditions -  °F | °C
As of 1:56 AM on Thursday 18 Dec 2014 (Local Time) from KELZ Reporting Station
Overcast Overcast  
Wind Chill: 14°   Ceiling: 1800
Heat Index: 26°   Visibility: 10mi
Dew Point: 19°   Wind: 16mph
Humidity: 75%   Direction: 280°W
Pressure: 29.95"   Gusts: 25mph
Location:  42.08°N, 78.06°W
Report Text: KELZ 180656Z AUTO 28014G22KT 10SM OVC018 M03/M07 A2995 RMK AO2 PK WND 30027/0606 SLP167 T10331072
Loading
Personal Weather Stations






























Interactive Weather Map New forecast layout! Learn more

10-Day Weather Forecast

Advertisements
Track Severe Weather on mobile